createdAt,value
2022-11-08T00:00:06.828Z,6.63
2022-11-08T00:02:34.985Z,4.88
2022-11-08T00:05:22.323Z,4.22
2022-11-08T00:08:07.774Z,8.73
2022-11-08T00:10:53.213Z,4.63
2022-11-08T00:13:38.488Z,7.97
2022-11-08T00:16:06.791Z,8.18
2022-11-08T00:18:34.850Z,4.00
2022-11-08T00:21:05.041Z,6.20
2022-11-08T00:23:32.810Z,9.27
2022-11-08T00:26:00.628Z,5.68
2022-11-08T00:28:28.381Z,5.60
2022-11-08T00:30:56.165Z,8.85
2022-11-08T00:33:23.996Z,5.43
2022-11-08T00:35:51.797Z,7.85
2022-11-08T00:38:21.080Z,4.85
2022-11-08T00:40:48.966Z,6.15
2022-11-08T00:43:16.948Z,9.65
2022-11-08T00:45:44.942Z,9.65
2022-11-08T00:48:12.931Z,10.15
2022-11-08T00:50:40.884Z,6.78
2022-11-08T00:53:09.082Z,6.65
2022-11-08T00:55:38.215Z,8.05
2022-11-08T00:58:05.986Z,7.13
2022-11-08T01:00:33.978Z,12.30
2022-11-08T01:03:19.926Z,4.97
2022-11-08T01:05:48.541Z,9.07
2022-11-08T01:08:18.064Z,5.13
2022-11-08T01:10:50.141Z,7.65
2022-11-08T01:13:19.261Z,8.18
2022-11-08T01:15:47.729Z,4.35
2022-11-08T01:18:17.958Z,6.22
2022-11-08T01:23:15.906Z,4.88
2022-11-08T01:25:45.498Z,6.10
2022-11-08T01:28:14.899Z,4.40
2022-11-08T01:30:45.100Z,5.82
2022-11-08T01:33:13.647Z,6.90
2022-11-08T01:35:44.363Z,5.20
2022-11-08T01:38:12.377Z,6.13
2022-11-08T01:40:44.337Z,6.90
2022-11-08T01:43:36.888Z,9.10
2022-11-08T01:46:37.356Z,6.82
2022-11-08T01:49:27.699Z,5.57
2022-11-08T01:52:01.874Z,5.05
2022-11-08T01:54:35.458Z,5.78
2022-11-08T01:57:06.279Z,6.30
2022-11-08T01:59:39.091Z,7.38
2022-11-08T02:02:08.689Z,10.30
2022-11-08T02:04:37.581Z,9.20
2022-11-08T02:07:06.632Z,5.30
2022-11-08T02:09:37.099Z,5.95
2022-11-08T02:12:06.585Z,8.80
2022-11-08T02:14:37.469Z,6.15
2022-11-08T02:17:05.710Z,6.20
2022-11-08T02:19:40.767Z,5.32
2022-11-08T02:22:17.616Z,5.32
2022-11-08T02:24:47.091Z,6.88
2022-11-08T02:27:15.790Z,5.45
2022-11-08T02:29:43.657Z,5.38
2022-11-08T02:32:12.590Z,6.53
2022-11-08T02:34:44.957Z,5.57
2022-11-08T02:37:15.420Z,5.07
2022-11-08T02:42:18.499Z,4.38
2022-11-08T02:44:46.641Z,6.90
2022-11-08T02:47:14.749Z,5.10
2022-11-08T02:49:42.834Z,5.72
2022-11-08T02:52:11.128Z,5.85
2022-11-08T02:54:39.083Z,7.38
2022-11-08T02:57:06.853Z,7.07
2022-11-08T02:59:35.988Z,4.72
2022-11-08T03:02:03.865Z,5.45
2022-11-08T03:04:31.827Z,6.15
2022-11-08T03:06:59.643Z,5.70
2022-11-08T03:09:28.053Z,6.07
2022-11-08T03:11:55.829Z,6.72
2022-11-08T03:14:24.338Z,4.18
2022-11-08T03:16:53.580Z,6.80
2022-11-08T03:19:21.859Z,10.27
2022-11-08T03:21:50.282Z,5.13
2022-11-08T03:24:18.093Z,7.30
2022-11-08T03:26:46.178Z,6.18
2022-11-08T03:29:13.999Z,9.10
2022-11-08T03:31:41.894Z,7.43
2022-11-08T03:34:11.864Z,7.20
2022-11-08T03:36:39.759Z,10.50
2022-11-08T03:39:07.584Z,6.30
2022-11-08T03:41:35.460Z,8.50
2022-11-08T03:44:03.297Z,8.70
2022-11-08T03:46:31.158Z,6.97
2022-11-08T03:48:58.992Z,6.55
2022-11-08T03:51:28.507Z,6.28
2022-11-08T03:53:56.541Z,7.63
2022-11-08T03:56:24.398Z,6.13
2022-11-08T03:58:52.213Z,8.20
2022-11-08T04:01:20.121Z,6.85
2022-11-08T04:03:47.938Z,5.45
2022-11-08T04:06:15.906Z,9.63
2022-11-08T04:08:45.139Z,6.95
2022-11-08T04:11:30.309Z,6.80
2022-11-08T04:14:16.511Z,7.70
2022-11-08T04:16:44.359Z,5.35
2022-11-08T04:19:29.598Z,7.25
2022-11-08T04:21:57.851Z,10.48
2022-11-08T04:24:27.026Z,9.10
2022-11-08T04:26:54.909Z,9.63
2022-11-08T04:29:22.742Z,9.05
2022-11-08T04:31:50.584Z,7.57
2022-11-08T04:34:18.391Z,7.93
2022-11-08T04:36:46.316Z,7.47
2022-11-08T04:39:14.160Z,6.95
2022-11-08T04:41:43.393Z,7.47
2022-11-08T04:44:12.451Z,8.90
2022-11-08T04:46:40.283Z,12.23
2022-11-08T04:49:09.256Z,6.25
2022-11-08T04:51:37.142Z,8.55
2022-11-08T04:54:07.602Z,6.15
2022-11-08T04:59:08.286Z,6.75
2022-11-08T05:01:38.766Z,7.10
2022-11-08T05:04:06.799Z,7.78
2022-11-08T05:06:34.720Z,9.15
2022-11-08T05:09:02.526Z,9.93
2022-11-08T05:11:31.324Z,17.40
2022-11-08T05:13:59.333Z,28.77
2022-11-08T05:16:30.126Z,29.83
2022-11-08T05:18:58.249Z,22.10
2022-11-08T05:21:44.021Z,19.25
2022-11-08T05:24:15.525Z,12.65
2022-11-08T05:26:45.902Z,7.45
2022-11-08T05:29:16.109Z,8.63
2022-11-08T05:31:45.602Z,9.63
2022-11-08T05:34:13.432Z,9.27
2022-11-08T05:36:41.205Z,6.60
2022-11-08T05:39:09.020Z,10.82
2022-11-08T05:41:36.873Z,7.20
2022-11-08T05:44:04.700Z,13.68
2022-11-08T05:46:32.513Z,6.88
2022-11-08T05:49:01.710Z,7.55
2022-11-08T05:51:29.561Z,11.57
2022-11-08T05:53:57.298Z,7.97
2022-11-08T05:56:25.172Z,9.93
2022-11-08T05:58:53.036Z,6.45
2022-11-08T06:01:21.444Z,9.52
2022-11-08T06:03:50.764Z,11.23
2022-11-08T06:06:21.406Z,9.23
2022-11-08T06:08:51.504Z,9.18
2022-11-08T06:11:22.730Z,12.07
2022-11-08T06:13:50.922Z,11.85
2022-11-08T06:16:20.164Z,7.65
2022-11-08T06:18:48.490Z,7.80
2022-11-08T06:21:18.089Z,8.02
2022-11-08T06:23:49.725Z,8.52
2022-11-08T06:26:18.018Z,7.75
2022-11-08T06:28:45.843Z,9.70
2022-11-08T06:31:13.687Z,8.35
2022-11-08T06:33:41.508Z,7.35
2022-11-08T06:36:09.965Z,6.68
2022-11-08T06:38:37.729Z,10.13
2022-11-08T06:41:07.063Z,9.38
2022-11-08T06:43:35.024Z,9.45
2022-11-08T06:46:03.397Z,10.85
2022-11-08T06:48:35.829Z,7.78
2022-11-08T06:51:05.283Z,6.97
2022-11-08T06:53:33.623Z,9.35
2022-11-08T06:56:01.660Z,7.93
2022-11-08T06:58:31.774Z,9.60
2022-11-08T07:01:03.396Z,9.20
2022-11-08T07:03:31.927Z,9.18
2022-11-08T07:06:02.706Z,11.13
2022-11-08T07:08:30.633Z,10.13
2022-11-08T07:10:58.647Z,13.00
2022-11-08T07:13:26.592Z,11.10
2022-11-08T07:15:58.617Z,12.00
2022-11-08T07:18:27.504Z,10.80
2022-11-08T07:20:59.476Z,13.07
2022-11-08T07:23:27.378Z,17.70
2022-11-08T07:25:55.321Z,11.10
2022-11-08T07:28:23.164Z,11.32
2022-11-08T07:30:51.026Z,8.88
2022-11-08T07:33:20.702Z,8.70
2022-11-08T07:35:48.762Z,9.85
2022-11-08T07:38:16.570Z,8.70
2022-11-08T07:40:44.866Z,11.85
2022-11-08T07:43:13.298Z,9.82
2022-11-08T07:45:41.813Z,12.63
2022-11-08T07:48:13.264Z,12.45
2022-11-08T07:50:43.434Z,14.05
2022-11-08T07:53:11.922Z,11.60
2022-11-08T07:55:40.394Z,12.43
2022-11-08T07:58:09.294Z,9.30
2022-11-08T08:00:39.379Z,9.30
2022-11-08T08:03:09.210Z,10.55
2022-11-08T08:05:38.808Z,10.88
2022-11-08T08:08:08.720Z,15.30
2022-11-08T08:10:37.341Z,13.82
2022-11-08T08:13:06.171Z,10.98
2022-11-08T08:15:34.725Z,7.85
2022-11-08T08:18:03.061Z,11.15
2022-11-08T08:20:31.890Z,6.97
2022-11-08T08:23:00.303Z,10.60
2022-11-08T08:25:31.490Z,8.32
2022-11-08T08:28:01.814Z,10.00
2022-11-08T08:30:31.859Z,7.80
2022-11-08T08:33:26.809Z,10.55
2022-11-08T08:35:53.474Z,8.45
2022-11-08T08:38:21.883Z,8.30
2022-11-08T08:40:51.523Z,10.13
2022-11-08T08:43:19.846Z,7.60
2022-11-08T08:45:48.801Z,15.52
2022-11-08T08:48:16.806Z,10.70
2022-11-08T08:50:44.586Z,9.60
2022-11-08T08:53:13.035Z,13.25
2022-11-08T08:55:41.754Z,11.50
2022-11-08T08:58:11.900Z,10.20
2022-11-08T09:03:27.672Z,9.30
2022-11-08T09:05:57.485Z,11.35
2022-11-08T09:08:25.771Z,13.15
2022-11-08T09:10:55.531Z,9.60
2022-11-08T09:13:26.145Z,10.27
2022-11-08T09:15:54.457Z,11.75
2022-11-08T09:18:22.338Z,11.27
2022-11-08T09:20:50.208Z,6.00
2022-11-08T09:23:18.859Z,6.25
2022-11-08T09:25:47.067Z,5.55
2022-11-08T09:28:14.859Z,14.52
2022-11-08T09:30:44.000Z,11.55
2022-11-08T09:33:11.893Z,13.27
2022-11-08T09:35:39.729Z,36.60
2022-11-08T09:38:07.852Z,10.27
2022-11-08T09:40:40.709Z,21.33
2022-11-08T09:43:26.909Z,23.35
2022-11-08T09:45:57.456Z,29.83
2022-11-08T09:48:29.559Z,27.25
2022-11-08T09:51:00.161Z,18.00
2022-11-08T09:53:35.824Z,23.55
2022-11-08T09:56:08.957Z,16.75
2022-11-08T09:58:41.120Z,10.05
2022-11-08T10:01:12.013Z,12.95
2022-11-08T10:03:42.703Z,6.60
2022-11-08T10:06:27.315Z,14.88
2022-11-08T10:09:03.926Z,5.00
2022-11-08T10:11:45.721Z,5.22
2022-11-08T10:14:31.554Z,3.45
2022-11-08T10:17:12.283Z,6.10
2022-11-08T10:19:52.101Z,4.53
2022-11-08T10:22:29.017Z,5.88
2022-11-08T10:25:01.823Z,7.03
2022-11-08T10:27:34.773Z,4.60
2022-11-08T10:30:06.108Z,4.03
2022-11-08T10:32:36.211Z,3.40
2022-11-08T10:35:10.511Z,3.58
2022-11-08T10:37:39.841Z,4.05
2022-11-08T10:40:20.215Z,3.38
2022-11-08T10:42:52.741Z,4.40
2022-11-08T10:45:20.548Z,6.50
2022-11-08T10:47:50.111Z,4.78
2022-11-08T10:50:20.603Z,3.43
2022-11-08T10:55:28.086Z,3.35
2022-11-08T10:57:55.879Z,4.80
2022-11-08T11:00:30.659Z,3.08
2022-11-08T11:03:01.582Z,4.40
2022-11-08T11:05:35.504Z,5.45
2022-11-08T11:08:14.594Z,3.45
2022-11-08T11:10:43.903Z,5.68
2022-11-08T11:13:13.765Z,4.53
2022-11-08T11:15:47.800Z,7.82
2022-11-08T11:18:32.850Z,5.60
2022-11-08T11:21:12.291Z,4.97
2022-11-08T11:23:43.874Z,4.38
2022-11-08T11:26:21.384Z,3.67
2022-11-08T11:29:17.714Z,4.78
2022-11-08T11:31:47.427Z,4.40
2022-11-08T11:34:42.241Z,4.35
2022-11-08T11:37:20.404Z,3.30
2022-11-08T11:39:56.050Z,5.88
2022-11-08T11:42:45.288Z,3.95
2022-11-08T11:45:18.996Z,4.25
2022-11-08T11:47:50.675Z,5.70
2022-11-08T11:50:31.987Z,3.60
2022-11-08T11:53:02.163Z,3.80
2022-11-08T11:55:45.657Z,5.30
2022-11-08T11:58:32.713Z,5.32
2022-11-08T12:01:13.131Z,5.15
2022-11-08T12:03:57.208Z,2.25
2022-11-08T12:06:38.638Z,6.88
2022-11-08T12:09:24.074Z,4.28
2022-11-08T12:12:04.729Z,3.80
2022-11-08T12:14:42.441Z,4.18
2022-11-08T12:17:34.665Z,3.97
2022-11-08T12:20:26.595Z,2.95
2022-11-08T12:23:10.180Z,3.33
2022-11-08T12:25:44.816Z,2.42
2022-11-08T12:28:33.382Z,4.45
2022-11-08T12:31:15.210Z,2.58
2022-11-08T12:33:57.809Z,4.00
2022-11-08T12:36:36.760Z,5.45
2022-11-08T12:39:23.180Z,3.15
2022-11-08T12:42:03.968Z,4.15
2022-11-08T12:44:53.141Z,3.30
2022-11-08T12:47:32.986Z,3.42
2022-11-08T12:50:11.561Z,3.30
2022-11-08T12:52:55.973Z,2.63
2022-11-08T12:55:28.333Z,3.00
2022-11-08T12:57:59.624Z,3.10
2022-11-08T13:00:29.306Z,3.08
2022-11-08T13:03:05.789Z,2.03
2022-11-08T13:05:38.636Z,3.15
2022-11-08T13:08:14.106Z,3.50
2022-11-08T13:10:51.676Z,2.95
2022-11-08T13:13:33.981Z,2.22
2022-11-08T13:16:10.707Z,5.65
2022-11-08T13:18:45.973Z,2.67
2022-11-08T13:21:41.078Z,6.25
2022-11-08T13:24:43.807Z,10.00
2022-11-08T13:27:33.926Z,1.92
2022-11-08T13:30:36.333Z,3.83
2022-11-08T13:33:15.092Z,3.17
2022-11-08T13:35:52.153Z,2.33
2022-11-08T13:38:31.949Z,5.43
2022-11-08T13:41:16.026Z,1.77
2022-11-08T13:43:45.896Z,3.90
2022-11-08T13:46:46.441Z,4.07
2022-11-08T13:51:47.372Z,5.03
2022-11-08T13:54:52.815Z,5.30
2022-11-08T13:57:42.282Z,3.63
2022-11-08T14:00:35.335Z,4.72
2022-11-08T14:03:03.135Z,2.88
2022-11-08T14:05:33.253Z,4.32
2022-11-08T14:08:20.942Z,7.32
2022-11-08T14:11:09.258Z,5.10
2022-11-08T14:13:58.078Z,4.10
2022-11-08T14:16:33.909Z,4.40
2022-11-08T14:19:19.960Z,3.13
2022-11-08T14:21:50.836Z,3.17
2022-11-08T14:24:22.663Z,7.00
2022-11-08T14:26:50.449Z,4.07
2022-11-08T14:29:19.486Z,5.25
2022-11-08T14:31:49.031Z,5.22
2022-11-08T14:34:31.974Z,5.77
2022-11-08T14:37:01.596Z,4.28
2022-11-08T14:39:34.578Z,5.33
2022-11-08T14:42:04.451Z,3.38
2022-11-08T14:44:32.296Z,4.70
2022-11-08T14:47:01.564Z,6.38
2022-11-08T14:49:34.809Z,5.10
2022-11-08T14:52:16.140Z,6.28
2022-11-08T14:54:46.878Z,4.10
2022-11-08T14:57:32.185Z,5.10
2022-11-08T15:00:02.412Z,7.03
2022-11-08T15:02:32.277Z,7.65
2022-11-08T15:05:00.089Z,6.35
2022-11-08T15:07:28.120Z,5.90
2022-11-08T15:09:56.636Z,8.43
2022-11-08T15:12:26.303Z,4.75
2022-11-08T15:14:58.944Z,7.28
2022-11-08T15:17:33.934Z,6.88
2022-11-08T15:20:20.768Z,6.93
2022-11-08T15:22:52.865Z,5.32
2022-11-08T15:25:29.093Z,4.35
2022-11-08T15:27:58.970Z,5.45
2022-11-08T15:30:37.867Z,9.85
2022-11-08T15:33:07.354Z,6.38
2022-11-08T15:35:37.798Z,10.40
2022-11-08T15:40:36.829Z,5.90
2022-11-08T15:43:04.941Z,5.45
2022-11-08T15:49:56.566Z,6.50
2022-11-08T15:52:24.519Z,6.63
2022-11-08T15:54:52.779Z,5.93
2022-11-08T15:57:20.761Z,4.85
2022-11-08T15:59:48.877Z,4.35
2022-11-08T16:02:22.944Z,6.63
2022-11-08T16:04:50.757Z,6.47
2022-11-08T16:07:20.070Z,7.63
2022-11-08T16:09:48.101Z,7.45
2022-11-08T16:12:17.688Z,5.25
2022-11-08T16:14:45.656Z,8.38
2022-11-08T16:17:14.968Z,5.55
2022-11-08T16:19:42.821Z,7.13
2022-11-08T16:22:10.712Z,12.27
2022-11-08T16:24:40.041Z,6.95
2022-11-08T16:27:07.981Z,5.35
2022-11-08T16:29:36.433Z,7.55
2022-11-08T16:32:04.295Z,7.20
2022-11-08T16:34:32.088Z,7.78
2022-11-08T16:37:00.153Z,7.88
2022-11-08T16:39:28.424Z,7.28
2022-11-08T16:41:57.601Z,8.52
2022-11-08T16:44:25.448Z,13.40
2022-11-08T16:46:54.143Z,8.88
2022-11-08T16:49:26.740Z,11.00
2022-11-08T16:51:54.596Z,7.97
2022-11-08T16:54:24.121Z,9.23
2022-11-08T16:57:03.457Z,8.97
2022-11-08T16:59:41.450Z,11.88
2022-11-08T17:02:20.538Z,5.95
2022-11-08T17:04:48.401Z,6.40
2022-11-08T17:07:16.227Z,8.48
2022-11-08T17:09:44.087Z,7.43
2022-11-08T17:12:12.129Z,6.25
2022-11-08T17:14:41.288Z,6.82
2022-11-08T17:17:10.382Z,7.05
2022-11-08T17:19:38.215Z,10.07
2022-11-08T17:22:06.220Z,7.57
2022-11-08T17:24:35.341Z,8.70
2022-11-08T17:27:03.163Z,6.93
2022-11-08T17:29:31.030Z,6.85
2022-11-08T17:32:00.497Z,10.07
2022-11-08T17:34:29.538Z,6.10
2022-11-08T17:36:57.344Z,11.88
2022-11-08T17:39:25.222Z,6.05
2022-11-08T17:41:53.224Z,9.98
2022-11-08T17:44:21.060Z,8.32
2022-11-08T17:46:50.160Z,8.35
2022-11-08T17:49:19.369Z,10.82
2022-11-08T17:51:47.315Z,8.38
2022-11-08T17:54:15.142Z,9.52
2022-11-08T17:56:43.166Z,11.98
2022-11-08T17:59:11.207Z,10.15
2022-11-08T18:01:39.270Z,5.28
2022-11-08T18:04:07.231Z,10.90
2022-11-08T18:06:38.750Z,10.88
2022-11-08T18:09:06.722Z,8.80
2022-11-08T18:11:34.623Z,10.05
2022-11-08T18:14:03.624Z,9.90
2022-11-08T18:16:31.937Z,8.00
2022-11-08T18:18:59.785Z,6.80
2022-11-08T18:21:27.737Z,9.07
2022-11-08T18:23:59.765Z,9.05
2022-11-08T18:26:28.250Z,8.57
2022-11-08T18:28:56.253Z,6.03
2022-11-08T18:31:24.339Z,8.77
2022-11-08T18:33:52.538Z,9.30
2022-11-08T18:36:22.817Z,7.03
2022-11-08T18:38:52.133Z,9.68
2022-11-08T18:41:25.154Z,5.90
2022-11-08T18:43:53.710Z,8.82
2022-11-08T18:46:23.431Z,5.22
2022-11-08T18:48:51.880Z,6.47
2022-11-08T18:51:21.575Z,6.47
2022-11-08T18:53:52.567Z,8.07
2022-11-08T18:56:22.590Z,7.35
2022-11-08T18:58:51.097Z,8.25
2022-11-08T19:01:19.319Z,7.63
2022-11-08T19:03:47.340Z,8.05
2022-11-08T19:06:15.219Z,6.35
2022-11-08T19:08:43.007Z,6.93
2022-11-08T19:11:13.029Z,6.60
2022-11-08T19:13:42.789Z,7.00
2022-11-08T19:16:14.395Z,9.70
2022-11-08T19:18:43.366Z,6.28
2022-11-08T19:21:14.458Z,8.30
2022-11-08T19:23:42.704Z,9.20
2022-11-08T19:26:14.039Z,7.85
2022-11-08T19:28:45.601Z,7.95
2022-11-08T19:31:14.514Z,6.50
2022-11-08T19:33:42.510Z,5.00
2022-11-08T19:36:13.839Z,6.70
2022-11-08T19:38:42.468Z,6.43
2022-11-08T19:41:12.592Z,6.07
2022-11-08T19:43:43.895Z,9.68
2022-11-08T19:46:13.863Z,6.47
2022-11-08T19:48:43.327Z,7.85
2022-11-08T19:51:14.684Z,8.00
2022-11-08T19:53:42.859Z,11.95
2022-11-08T19:56:12.387Z,7.35
2022-11-08T19:58:40.652Z,5.77
2022-11-08T20:01:10.894Z,9.55
2022-11-08T20:03:39.311Z,8.73
2022-11-08T20:06:08.425Z,8.80
2022-11-08T20:08:36.519Z,8.77
2022-11-08T20:11:12.344Z,7.88
2022-11-08T20:13:40.263Z,6.85
2022-11-08T20:16:14.808Z,8.82
2022-11-08T20:18:43.094Z,6.93
2022-11-08T20:21:12.913Z,8.65
2022-11-08T20:23:42.511Z,8.70
2022-11-08T20:26:16.382Z,7.57
2022-11-08T20:28:55.157Z,8.02
2022-11-08T20:31:25.913Z,9.73
2022-11-08T20:33:54.800Z,8.65
2022-11-08T20:36:23.999Z,7.43
2022-11-08T20:38:55.433Z,6.80
2022-11-08T20:41:23.320Z,11.95
2022-11-08T20:43:51.326Z,11.88
2022-11-08T20:46:21.686Z,7.43
2022-11-08T20:48:51.524Z,7.88
2022-11-08T20:51:21.224Z,7.95
2022-11-08T20:53:49.490Z,6.68
2022-11-08T20:56:19.223Z,6.43
2022-11-08T20:58:48.219Z,7.72
2022-11-08T21:01:18.272Z,9.75
2022-11-08T21:03:47.422Z,6.90
2022-11-08T21:06:22.116Z,6.43
2022-11-08T21:08:59.001Z,7.47
2022-11-08T21:11:30.206Z,7.55
2022-11-08T21:13:58.210Z,7.28
2022-11-08T21:16:31.565Z,7.75
2022-11-08T21:19:01.154Z,7.18
2022-11-08T21:21:30.937Z,7.95
2022-11-08T21:23:58.796Z,6.88
2022-11-08T21:26:26.715Z,7.30
2022-11-08T21:28:55.262Z,6.03
2022-11-08T21:31:23.085Z,5.93
2022-11-08T21:33:51.036Z,7.40
2022-11-08T21:36:20.506Z,6.47
2022-11-08T21:38:49.960Z,7.45
2022-11-08T21:41:17.902Z,5.63
2022-11-08T21:43:45.913Z,5.75
2022-11-08T21:46:15.874Z,7.00
2022-11-08T21:48:43.861Z,7.20
2022-11-08T21:51:11.749Z,5.95
2022-11-08T21:53:49.318Z,7.07
2022-11-08T21:56:22.390Z,7.20
2022-11-08T21:58:50.208Z,5.47
2022-11-08T22:01:18.350Z,5.15
2022-11-08T22:03:46.751Z,5.95
2022-11-08T22:06:15.031Z,7.95
2022-11-08T22:08:42.834Z,11.95
2022-11-08T22:11:10.639Z,7.45
2022-11-08T22:13:39.852Z,6.53
2022-11-08T22:16:08.108Z,7.05
2022-11-08T22:18:58.788Z,9.13
2022-11-08T22:21:39.623Z,9.68
2022-11-08T22:24:09.473Z,9.13
2022-11-08T22:26:37.459Z,6.57
2022-11-08T22:29:06.995Z,6.13
2022-11-08T22:31:34.971Z,7.93
2022-11-08T22:34:02.869Z,6.65
2022-11-08T22:36:30.741Z,6.18
2022-11-08T22:38:58.983Z,5.57
2022-11-08T22:41:26.853Z,6.22
2022-11-08T22:43:55.336Z,8.75
2022-11-08T22:46:24.788Z,8.10
2022-11-08T22:48:52.605Z,10.48
2022-11-08T22:51:20.421Z,11.13
2022-11-08T22:53:48.327Z,9.90
2022-11-08T22:56:16.122Z,8.50
2022-11-08T22:58:43.907Z,8.43
2022-11-08T23:01:13.301Z,8.88
2022-11-08T23:03:45.381Z,9.32
2022-11-08T23:06:13.885Z,8.13
2022-11-08T23:08:42.238Z,11.75
2022-11-08T23:11:27.925Z,7.97
2022-11-08T23:14:13.439Z,9.70
2022-11-08T23:16:43.883Z,4.18
2022-11-08T23:19:32.831Z,4.63
2022-11-08T23:22:18.501Z,7.03
2022-11-08T23:24:46.536Z,6.75
2022-11-08T23:27:35.006Z,6.63
2022-11-08T23:30:20.681Z,12.00
2022-11-08T23:32:49.944Z,14.05
2022-11-08T23:35:21.472Z,11.02
2022-11-08T23:37:49.668Z,8.35
2022-11-08T23:40:37.087Z,7.10
2022-11-08T23:43:24.374Z,8.52
2022-11-08T23:45:52.696Z,9.82
2022-11-08T23:48:20.858Z,11.82
2022-11-08T23:50:52.075Z,7.45
2022-11-08T23:53:20.537Z,8.23
2022-11-08T23:55:48.767Z,7.47
2022-11-08T23:58:16.637Z,6.97
